Decoded Metar for KAIA (ALLIANCE in NE, USA) (IATA:AIA) | Meteo·Mobile Aviation Weather
aviador You're here:

KAIA Decoded Metar

ALLIANCE in NE, USA
Report Time2019-05-19 21:53:00
UTC Time2019-05-19 22:36:14
Flight Rules vfr VFR
Wind020° at 11 kt
W.Decomp.*RWY 35: 10.4 kt HW 3.6 kt RCW
RWY 30: 3.9 kt HW 10.3 kt RCW
RWY 08: 3.6 kt HW 10.4 kt LCW
Visibility9999 m
Phenomena:N/A
Clouds:Broken 036 Hf
Expected CloudBase > 2,800 ft AGL from Temp-Dew spread
Ceiling3,600 ft
Temp08°C (ISA +1)
Dew Point01°C (62% RH)
AAT2.2°C
QNH1015 hPa
Density Alt4,052 ft
Elevation3,924 ft
Report Wrong Elevation
Raw Report
KAIA 192153Z AUTO 02011KT 10SM BKN036 08/01 A2998 RMK AO2 SLP159
T00830006 $=

Extra information for KAIA:More info

Metar Taf Metar & Taf Last 4 Metars F.Rules Stats Wind Profile Meteogram Temp Stats Airport Information Weather charts Add Link Nearby VenuesMetar ALERT Operation Metar Decoded Social comments

AIRNAV info for KAIA